Nearby METAR Reports

 

EGOS - RAF Shawbury, Shropshire, UK
Distance from station: NE 9mi, 14km
Updated: 25/04/2018 08:50
Partly cloudy
Partly cloudy
 Wind from WSW
Wind: WSW 14 mph , 22 km/h
Temperature: 10°C
Wind Chill: 7°C
Dew Point: 6°C
Humidity: 76%
Barometer: 1010 hPa
Clouds: Partly cloudy
Visibility: 6 miles , 10 km
Cloud details: Partly cloudy 610 m
2018/04/25 07:50 EGOS 250750Z 24012KT 9999 SCT020 10/06 Q1010 WHT NOSIG
KNUQ - Moffett Nas/Mtn, California, USA
Distance from station: N 9mi, 14km
Updated: 25/04/2018 09:22
Mostly cloudy
Mostly cloudy
 Wind from NNE
Wind: NNE 6 mph , 9 km/h
Temperature: 12°C
Dew Point: 10°C
Humidity: 88%
Barometer: 1017.6 hPa
Clouds: Mostly cloudy
Visibility: 10 miles , 16 km
Cloud details: Mostly cloudy 427 m
2018/04/25 08:22 KNUQ 250822Z 03005KT 10SM BKN014 12/10 A3005 RMK AO2 T01220100
 
KPAO - Palo Alto, California, USA
Distance from station: NNW 14mi, 23km
Updated: 25/04/2018 04:47
NOT Current
Partly cloudy
Partly cloudy
 Wind from NW
Wind: NW 9 mph , 15 km/h
Barometer: 1016.3 hPa
Clouds: Partly cloudy
Visibility: 10 miles , 16 km
Cloud details: Partly cloudy 4877 m
2018/04/25 03:47 KPAO 250347Z 32008KT 10SM SCT160 A3001 RMK LAST
KRHV - San Jose/Reid, California, USA
Distance from station: ENE 12mi, 19km
Updated: 25/04/2018 05:47
NOT Current
Mostly cloudy
Mostly cloudy
 Wind from NW
Wind: NW 6 mph , 9 km/h
Temperature: 14°C
Dew Point: 10°C
Humidity: 77%
Barometer: 1016.3 hPa
Clouds: Mostly cloudy
Visibility: 10 miles , 16 km
Cloud details: Mostly cloudy 3353 m
2018/04/25 04:47 KRHV 250447Z 31005KT 10SM BKN110 14/10 A3001 RMK LAST
 
KOAK - Oakland, California, USA
Distance from station: NNW 31mi, 50km
Updated: 25/04/2018 08:53
Few Clouds
Few Clouds
 Wind from WNW
Wind: WNW 10 mph , 17 km/h
Temperature: 11°C
Dew Point: 9°C
Humidity: 88%
Barometer: 1017.3 hPa
Clouds: Few Clouds
Visibility: 10 miles , 16 km
Cloud details: Few Clouds 396 m
2018/04/25 07:53 KOAK 250753Z 30009KT 10SM FEW013 11/09 A3004 RMK AO2 SLP173 T01060089 401670106 $
KSQL - San Carlos Airpo, California, USA
Distance from station: NW 21mi, 34km
Updated: 25/04/2018 09:40
Overcast
Overcast
 Wind from WNW
Wind: WNW 5 mph , 7 km/h
Temperature: 11°C
Dew Point: 8°C
Humidity: 82%
Barometer: 1017.3 hPa
Clouds: Overcast
Visibility: 10 miles , 16 km
Cloud details: Overcast 518 m
2018/04/25 08:40 KSQL 250840Z AUTO 30004KT 10SM OVC017 11/08 A3004 RMK AO2
 
KSFO - San Francisco, California, USA
Distance from station: NW 30mi, 49km
Updated: 25/04/2018 08:56
Partly cloudy
Partly cloudy
 Wind from W
Wind: W 9 mph , 15 km/h
Temperature: 12°C
Dew Point: 8°C
Humidity: 77%
Barometer: 1017.3 hPa
Clouds: Partly cloudy
Visibility: 10 miles , 16 km
Cloud details: Few Clouds 244 m
Partly cloudy 6096 m
2018/04/25 07:56 KSFO 250756Z 28008KT 10SM FEW008 SCT200 12/08 A3004 RMK AO2 SLP172 T01170078 401890117
KE16 - San Martin, California, USA
Distance from station: ESE 27mi, 43km
Updated: 25/04/2018 09:35
Overcast
Overcast
 Wind from calm
Wind: Calm
Temperature: 9°C
Dew Point: 8°C
Humidity: 94%
Barometer: 1017.9 hPa
Clouds: Overcast
Visibility: 10 miles , 16 km
Cloud details: Overcast 488 m
2018/04/25 08:35 KE16 250835Z AUTO 00000KT 10SM OVC016 09/08 A3006 RMK AO2
 
KWVI - Watsonville, California, USA
Distance from station: SSE 27mi, 44km
Updated: 25/04/2018 08:53
Overcast
Overcast
 Wind from SSW
Wind: SSW 3 mph , 6 km/h
Temperature: 11°C
Dew Point: 9°C
Humidity: 88%
Barometer: 1017.6 hPa
Clouds: Overcast
Visibility: 7 miles , 11 km
Cloud details: Overcast 213 m
2018/04/25 07:53 KWVI 250753Z AUTO 21003KT 7SM OVC007 11/09 A3005 RMK AO2 SLP175 T01060094 401560100
KHAF - Half Moon Bay, California, USA
Distance from station: WNW 31mi, 50km
Updated: 25/04/2018 09:40
Overcast
Overcast
 Wind from WNW
Wind: WNW 5 mph , 7 km/h
Temperature: 11°C
Dew Point: 9°C
Humidity: 88%
Barometer: 1017.9 hPa
Clouds: Overcast
Visibility: 8 miles , 13 km
Cloud details: Overcast 366 m
2018/04/25 08:40 KHAF 250840Z AUTO 30004KT 8SM OVC012 11/09 A3006 RMK AO2
 
KHWD - Hayward, California, USA
Distance from station: N 28mi, 44km
Updated: 25/04/2018 09:44
Mostly cloudy
Mostly cloudy
 Wind from N
Wind: N 6 mph , 9 km/h
Temperature: 12°C
Dew Point: 7°C
Humidity: 72%
Barometer: 1017.3 hPa
Clouds: Mostly cloudy
Visibility: 10 miles , 16 km
Cloud details: Mostly cloudy 396 m
2018/04/25 08:44 KHWD 250844Z 36005KT 10SM BKN013 12/07 A3004 RMK AO2 T01170072
KLVK - Livermore, California, USA
Distance from station: NNE 31mi, 51km
Updated: 25/04/2018 08:53
Clear
Clear
 Wind from NW
Wind: NW 6 mph , 9 km/h
Temperature: 11°C
Dew Point: 9°C
Humidity: 88%
Barometer: 1016.3 hPa
Clouds: Clear
Visibility: 10 miles , 16 km
2018/04/25 07:53 KLVK 250753Z AUTO 31005KT 10SM CLR 11/09 A3001 RMK AO2 SLP162 T01110094 402560100